Terminal Aerodrome Forecast
Issued by NWS Mt. Holly, NJ

Home | Current Version | Previous Version | Text Only | Print | Product List | Glossary On
Versions: 1 2 3 4 5 6 7 8 9 10 11 12 13 14 15 16
000
FTUS41 KPHI 271746
TAFABE
TAF
KABE 271746Z 2718/2818 21010G18KT P6SM BKN035
      TEMPO 2720/2722 4SM TSRA OVC030CB
     FM280000 20006KT P6SM SCT100 BKN200
     FM280900 22003KT 4SM BR BKN015
     FM281400 26008KT P6SM SCT015 BKN150=

USA.gov is the U.S. government's official web portal to all federal, state and local government web resources and services.